createdAt,value
2023-02-09T00:01:00.821Z,53933.13
2023-02-09T00:03:27.148Z,53935.19
2023-02-09T00:06:01.465Z,53964.16
2023-02-09T00:08:28.022Z,53935.19
2023-02-09T00:10:54.670Z,53902.13
2023-02-09T00:13:24.449Z,53916.59
2023-02-09T00:15:50.741Z,53947.59
2023-02-09T00:18:17.234Z,53945.53
2023-02-09T00:20:43.986Z,53933.13
2023-02-09T00:23:10.693Z,53926.94
2023-02-09T00:25:40.026Z,53933.13
2023-02-09T00:28:06.550Z,53939.34
2023-02-09T00:30:32.911Z,53935.19
2023-02-09T00:32:59.215Z,53941.41
2023-02-09T00:35:25.844Z,53914.53
2023-02-09T00:37:52.133Z,53929.00
2023-02-09T00:40:18.477Z,53922.78
2023-02-09T00:42:44.759Z,53951.75
2023-02-09T00:45:11.393Z,53945.53
2023-02-09T00:47:37.756Z,53943.47
2023-02-09T00:50:06.675Z,53926.94
2023-02-09T00:52:33.210Z,53929.00
2023-02-09T00:54:59.485Z,53929.00
2023-02-09T00:57:26.040Z,53933.13
2023-02-09T00:59:52.376Z,53926.94
2023-02-09T01:02:18.687Z,53939.34
2023-02-09T01:04:45.055Z,53922.78
2023-02-09T01:07:11.404Z,53922.78
2023-02-09T01:09:37.731Z,53918.66
2023-02-09T01:12:04.090Z,53953.81
2023-02-09T01:14:30.544Z,53947.59
2023-02-09T01:16:56.921Z,53937.25
2023-02-09T01:19:23.298Z,53943.47
2023-02-09T01:21:49.664Z,53939.34
2023-02-09T01:24:16.241Z,53904.19
2023-02-09T01:26:42.628Z,53920.72
2023-02-09T01:29:11.376Z,53916.59
2023-02-09T01:31:38.040Z,53945.53
2023-02-09T01:34:06.586Z,53922.78
2023-02-09T01:36:33.078Z,53935.19
2023-02-09T01:39:00.745Z,53951.75
2023-02-09T01:41:27.303Z,53931.06
2023-02-09T01:44:07.275Z,53943.47
2023-02-09T01:46:34.497Z,53912.44
2023-02-09T01:49:05.494Z,53929.00
2023-02-09T01:51:35.654Z,53920.72
2023-02-09T01:54:04.883Z,53910.38
2023-02-09T01:56:31.278Z,53951.75
2023-02-09T01:58:57.651Z,53924.84
2023-02-09T02:01:26.534Z,53941.41
2023-02-09T02:03:53.090Z,53935.19
2023-02-09T02:06:19.415Z,53953.81
2023-02-09T02:08:48.196Z,53935.19
2023-02-09T02:11:14.518Z,53914.53
2023-02-09T02:13:42.249Z,53949.66
2023-02-09T02:16:14.820Z,53937.25
2023-02-09T02:18:41.112Z,53924.84
2023-02-09T02:21:10.608Z,53912.44
2023-02-09T02:23:54.276Z,53922.78
2023-02-09T02:26:29.657Z,53935.19
2023-02-09T02:28:55.945Z,53914.53
2023-02-09T02:31:41.213Z,53931.06
2023-02-09T02:34:09.183Z,53922.78
2023-02-09T02:36:45.502Z,53929.00
2023-02-09T02:39:18.181Z,53918.66
2023-02-09T02:42:35.838Z,53926.94
2023-02-09T02:45:04.782Z,53935.19
2023-02-09T02:47:31.154Z,53926.94
2023-02-09T02:49:58.481Z,53914.53
2023-02-09T02:52:24.801Z,53955.88
2023-02-09T02:54:57.488Z,53922.78
2023-02-09T02:57:25.241Z,53910.38
2023-02-09T02:59:53.686Z,53949.66
2023-02-09T03:02:21.328Z,53947.59
2023-02-09T03:04:48.444Z,53922.78
2023-02-09T03:07:15.212Z,53931.06
2023-02-09T03:09:48.264Z,53914.53
2023-02-09T03:12:17.632Z,53945.53
2023-02-09T03:14:55.534Z,53906.25
2023-02-09T03:17:41.819Z,53926.94
2023-02-09T03:20:08.792Z,53931.06
2023-02-09T03:22:35.890Z,53947.59
2023-02-09T03:25:06.237Z,53943.47
2023-02-09T03:27:36.870Z,53939.34
2023-02-09T03:30:07.046Z,53943.47
2023-02-09T03:32:36.737Z,53922.78
2023-02-09T03:35:03.071Z,53943.47
2023-02-09T03:37:29.928Z,53941.41
2023-02-09T03:39:56.228Z,53957.94
2023-02-09T03:42:22.512Z,53957.94
2023-02-09T03:44:48.808Z,53939.34
2023-02-09T03:47:15.143Z,53962.06
2023-02-09T03:49:41.898Z,53960.00
2023-02-09T03:52:09.834Z,53972.41
2023-02-09T03:54:36.939Z,53943.47
2023-02-09T03:57:03.704Z,53937.25
2023-02-09T03:59:30.235Z,53951.75
2023-02-09T04:01:58.446Z,53935.19
2023-02-09T04:04:25.168Z,53955.88
2023-02-09T04:06:51.490Z,53929.00
2023-02-09T04:09:17.835Z,53947.59
2023-02-09T04:11:44.231Z,53935.19
2023-02-09T04:14:10.563Z,53943.47
2023-02-09T04:16:37.064Z,53918.66
2023-02-09T04:19:04.003Z,53949.66
2023-02-09T04:21:30.487Z,53947.59
2023-02-09T04:23:56.867Z,53937.25
2023-02-09T04:26:23.261Z,53937.25
2023-02-09T04:28:49.607Z,53926.94
2023-02-09T04:31:16.055Z,53955.88
2023-02-09T04:33:42.440Z,53931.06
2023-02-09T04:36:09.308Z,53933.13
2023-02-09T04:38:35.666Z,53962.06
2023-02-09T04:41:02.490Z,53933.13
2023-02-09T04:43:28.860Z,53984.81
2023-02-09T04:45:55.399Z,53960.00
2023-02-09T04:48:22.497Z,53943.47
2023-02-09T04:50:48.938Z,53943.47
2023-02-09T04:53:15.429Z,53964.16
2023-02-09T04:55:43.242Z,53966.22
2023-02-09T04:58:28.791Z,53949.66
2023-02-09T05:00:55.659Z,53914.53
2023-02-09T05:03:24.565Z,53962.06
2023-02-09T05:05:53.665Z,53935.19
2023-02-09T05:08:20.040Z,53960.00
2023-02-09T05:10:46.647Z,53980.69
2023-02-09T05:13:13.205Z,53955.88
2023-02-09T05:15:39.535Z,53918.66
2023-02-09T05:18:05.902Z,53929.00
2023-02-09T05:20:32.238Z,53978.63
2023-02-09T05:22:58.579Z,53951.75
2023-02-09T05:25:24.898Z,53935.19
2023-02-09T05:27:51.237Z,53929.00
2023-02-09T05:30:17.613Z,53935.19
2023-02-09T05:32:43.936Z,53972.41
2023-02-09T05:35:11.204Z,53957.94
2023-02-09T05:37:37.557Z,53933.13
2023-02-09T05:40:04.066Z,53941.41
2023-02-09T05:42:30.428Z,53957.94
2023-02-09T05:44:56.757Z,53953.81
2023-02-09T05:47:24.564Z,53926.94
2023-02-09T05:49:51.192Z,53955.88
2023-02-09T05:52:17.708Z,53951.75
2023-02-09T05:54:44.170Z,53914.53
2023-02-09T05:57:10.518Z,53941.41
2023-02-09T05:59:36.807Z,53943.47
2023-02-09T06:02:03.197Z,53939.34
2023-02-09T06:04:29.600Z,53933.13
2023-02-09T06:06:56.065Z,53947.59
2023-02-09T06:09:22.480Z,53988.94
2023-02-09T06:11:48.843Z,53933.13
2023-02-09T06:14:15.480Z,53993.09
2023-02-09T06:16:41.899Z,53964.16
2023-02-09T06:19:09.508Z,53945.53
2023-02-09T06:21:35.911Z,53964.16
2023-02-09T06:24:02.243Z,53943.47
2023-02-09T06:26:28.620Z,53955.88
2023-02-09T06:28:54.983Z,53976.53
2023-02-09T06:31:21.431Z,53972.41
2023-02-09T06:33:47.823Z,53933.13
2023-02-09T06:36:14.154Z,53960.00
2023-02-09T06:38:40.526Z,53964.16
2023-02-09T06:41:06.855Z,53957.94
2023-02-09T06:43:33.355Z,53953.81
2023-02-09T06:46:04.717Z,53951.75
2023-02-09T06:48:31.035Z,53939.34
2023-02-09T06:50:57.428Z,53986.88
2023-02-09T06:53:23.860Z,53968.28
2023-02-09T06:55:50.178Z,53939.34
2023-02-09T06:58:16.483Z,53976.53
2023-02-09T07:00:42.801Z,53980.69
2023-02-09T07:03:09.180Z,53988.94
2023-02-09T07:05:35.463Z,53991.03
2023-02-09T07:08:01.807Z,53953.81
2023-02-09T07:10:28.135Z,53993.09
2023-02-09T07:12:56.834Z,53933.13
2023-02-09T07:15:23.114Z,53980.69
2023-02-09T07:17:49.435Z,53976.53
2023-02-09T07:20:15.811Z,53964.16
2023-02-09T07:22:42.181Z,53988.94
2023-02-09T07:25:08.592Z,53964.16
2023-02-09T07:27:35.056Z,53978.63
2023-02-09T07:30:01.584Z,53970.34
2023-02-09T07:32:28.010Z,53974.47
2023-02-09T07:34:54.323Z,53935.19
2023-02-09T07:37:20.637Z,53962.06
2023-02-09T07:39:47.035Z,53951.75
2023-02-09T07:42:13.423Z,53964.16
2023-02-09T07:44:39.782Z,53943.47
2023-02-09T07:47:06.098Z,53941.41
2023-02-09T07:49:34.321Z,53945.53
2023-02-09T07:52:00.664Z,53968.28
2023-02-09T07:54:27.076Z,53953.81
2023-02-09T07:56:54.772Z,53955.88
2023-02-09T07:59:21.063Z,53955.88
2023-02-09T08:01:47.496Z,53935.19
2023-02-09T08:04:13.864Z,53962.06
2023-02-09T08:06:43.195Z,53937.25
2023-02-09T08:09:10.411Z,53943.47
2023-02-09T08:11:36.869Z,53943.47
2023-02-09T08:14:04.092Z,53976.53
2023-02-09T08:16:31.126Z,53941.41
2023-02-09T08:18:58.821Z,53933.13
2023-02-09T08:21:25.256Z,53939.34
2023-02-09T08:23:52.460Z,53929.00
2023-02-09T08:26:18.988Z,53947.59
2023-02-09T08:28:45.759Z,53939.34
2023-02-09T08:31:17.362Z,53918.66
2023-02-09T08:33:44.254Z,53937.25
2023-02-09T08:36:11.068Z,53918.66
2023-02-09T08:38:37.412Z,53933.13
2023-02-09T08:41:04.641Z,53926.94
2023-02-09T08:43:31.273Z,53897.97
2023-02-09T08:46:02.173Z,53924.84
2023-02-09T08:48:30.227Z,53922.78
2023-02-09T08:50:56.528Z,53931.06
2023-02-09T08:53:22.850Z,53939.34
2023-02-09T08:55:49.343Z,53931.06
2023-02-09T08:58:15.675Z,53922.78
2023-02-09T09:00:41.993Z,53914.53
2023-02-09T09:03:08.513Z,53947.59
2023-02-09T09:05:35.221Z,53964.16
2023-02-09T09:08:02.197Z,53964.16
2023-02-09T09:10:28.670Z,53929.00
2023-02-09T09:12:54.941Z,53945.53
2023-02-09T09:15:21.572Z,53962.06
2023-02-09T09:17:47.862Z,53937.25
2023-02-09T09:20:14.332Z,53947.59
2023-02-09T09:22:40.679Z,53972.41
2023-02-09T09:25:07.304Z,53974.47
2023-02-09T09:27:34.942Z,53953.81
2023-02-09T09:30:01.678Z,53935.19
2023-02-09T09:32:28.213Z,53945.53
2023-02-09T09:34:55.379Z,53926.94
2023-02-09T09:37:22.151Z,53962.06
2023-02-09T09:39:48.587Z,53951.75
2023-02-09T09:42:33.756Z,53972.41
2023-02-09T09:45:00.017Z,53964.16
2023-02-09T09:47:30.832Z,53955.88
2023-02-09T09:49:57.150Z,53935.19
2023-02-09T09:52:23.396Z,53978.63
2023-02-09T09:54:49.705Z,53957.94
2023-02-09T09:57:20.323Z,53957.94
2023-02-09T09:59:46.810Z,53947.59
2023-02-09T10:02:23.503Z,53947.59
2023-02-09T10:04:49.946Z,53962.06
2023-02-09T10:07:19.594Z,54009.63
2023-02-09T10:09:52.037Z,53980.69
2023-02-09T10:12:21.766Z,53976.53
2023-02-09T10:14:48.083Z,53984.81
2023-02-09T10:17:14.440Z,54009.63
2023-02-09T10:19:40.743Z,53964.16
2023-02-09T10:22:11.573Z,54015.84
2023-02-09T10:24:39.815Z,54005.50
2023-02-09T10:27:14.136Z,53986.88
2023-02-09T10:29:40.787Z,54017.91
2023-02-09T10:32:42.657Z,53988.94
2023-02-09T10:35:35.161Z,54001.34
2023-02-09T10:38:02.039Z,53972.41
2023-02-09T10:40:29.004Z,53984.81
2023-02-09T10:42:59.324Z,54003.44
2023-02-09T10:45:26.868Z,54026.16
2023-02-09T10:47:57.970Z,54011.69
2023-02-09T10:50:24.345Z,53980.69
2023-02-09T10:53:01.437Z,54007.56
2023-02-09T10:55:35.619Z,54007.56
2023-02-09T10:58:13.297Z,53982.75
2023-02-09T11:00:50.466Z,54022.03
2023-02-09T11:03:18.064Z,53988.94
2023-02-09T11:05:45.390Z,54013.75
2023-02-09T11:08:21.744Z,53988.94
2023-02-09T11:11:05.585Z,54034.44
2023-02-09T11:13:32.551Z,54038.59
2023-02-09T11:16:08.176Z,54011.69
2023-02-09T11:18:34.839Z,54015.84
2023-02-09T11:21:05.716Z,53997.22
2023-02-09T11:23:38.351Z,54042.72
2023-02-09T11:26:10.034Z,54001.34
2023-02-09T11:28:42.205Z,53999.28
2023-02-09T11:31:14.855Z,53988.94
2023-02-09T11:34:01.560Z,54022.03
2023-02-09T11:36:27.848Z,54034.44
2023-02-09T11:38:55.560Z,54050.97
2023-02-09T11:41:52.348Z,54034.44
2023-02-09T11:44:26.653Z,54030.31
2023-02-09T11:46:54.032Z,54024.09
2023-02-09T11:49:20.495Z,53978.63
2023-02-09T11:51:46.787Z,54017.91
2023-02-09T11:54:16.634Z,54015.84
2023-02-09T11:56:44.954Z,54017.91
2023-02-09T11:59:19.908Z,53997.22
2023-02-09T12:02:04.808Z,54030.31
2023-02-09T12:04:32.728Z,54015.84
2023-02-09T12:07:00.374Z,54034.44
2023-02-09T12:09:29.699Z,53984.81
2023-02-09T12:12:04.560Z,54050.97
2023-02-09T12:14:33.812Z,54032.38
2023-02-09T12:17:00.852Z,54044.78
2023-02-09T12:19:30.142Z,54057.19
2023-02-09T12:21:56.556Z,54034.44
2023-02-09T12:24:32.481Z,54044.78
2023-02-09T12:26:58.802Z,54042.72
2023-02-09T12:29:27.746Z,54055.13
2023-02-09T12:32:03.407Z,54073.72
2023-02-09T12:34:59.139Z,54048.91
2023-02-09T12:37:28.420Z,54075.78
2023-02-09T12:40:02.091Z,54044.78
2023-02-09T12:42:29.269Z,54057.19
2023-02-09T12:44:58.757Z,54063.38
2023-02-09T12:47:41.800Z,54038.59
2023-02-09T12:50:18.178Z,54038.59
2023-02-09T12:53:04.500Z,54019.97
2023-02-09T12:55:30.878Z,54053.06
2023-02-09T12:57:57.241Z,54046.84
2023-02-09T13:00:29.846Z,54015.84
2023-02-09T13:02:56.637Z,54061.31
2023-02-09T13:05:33.548Z,54075.78
2023-02-09T13:08:08.713Z,54069.59
2023-02-09T13:10:53.777Z,54063.38
2023-02-09T13:13:32.290Z,54092.34
2023-02-09T13:16:04.736Z,54048.91
2023-02-09T13:18:49.960Z,54082.00
2023-02-09T13:21:45.794Z,54092.34
2023-02-09T13:24:16.342Z,54065.47
2023-02-09T13:26:53.118Z,54038.59
2023-02-09T13:29:22.223Z,54055.13
2023-02-09T13:31:54.625Z,54067.53
2023-02-09T13:34:35.259Z,54082.00
2023-02-09T13:37:13.851Z,54077.88
2023-02-09T13:39:40.847Z,54082.00
2023-02-09T13:42:20.864Z,54059.25
2023-02-09T13:44:48.883Z,54084.06
2023-02-09T13:47:15.786Z,54059.25
2023-02-09T13:49:42.654Z,54067.53
2023-02-09T13:52:09.159Z,54088.19
2023-02-09T13:54:35.484Z,54067.53
2023-02-09T13:57:01.799Z,54069.59
2023-02-09T13:59:28.070Z,54084.06
2023-02-09T14:01:54.378Z,54050.97
2023-02-09T14:04:22.064Z,54090.28
2023-02-09T14:06:58.322Z,54084.06
2023-02-09T14:09:25.598Z,54086.13
2023-02-09T14:11:52.710Z,54079.94
2023-02-09T14:14:19.136Z,54077.88
2023-02-09T14:16:53.349Z,54065.47
2023-02-09T14:19:24.105Z,54071.66
2023-02-09T14:21:50.895Z,54077.88
2023-02-09T14:24:21.856Z,54069.59
2023-02-09T14:27:04.709Z,54071.66
2023-02-09T14:29:32.116Z,54038.59
2023-02-09T14:31:59.258Z,54067.53
2023-02-09T14:34:28.763Z,54048.91
2023-02-09T14:36:56.814Z,54032.38
2023-02-09T14:39:23.224Z,54063.38
2023-02-09T14:41:57.216Z,54046.84
2023-02-09T14:44:23.854Z,54094.41
2023-02-09T14:46:50.194Z,54067.53
2023-02-09T14:49:16.721Z,54073.72
2023-02-09T14:51:43.154Z,54059.25
2023-02-09T14:54:35.877Z,54055.13
2023-02-09T14:57:03.782Z,54088.19
2023-02-09T14:59:30.574Z,54036.50
2023-02-09T15:01:57.027Z,54065.47
2023-02-09T15:04:23.362Z,54071.66
2023-02-09T15:06:55.741Z,54071.66
2023-02-09T15:09:23.078Z,54057.19
2023-02-09T15:12:10.378Z,54038.59
2023-02-09T15:14:42.711Z,54065.47
2023-02-09T15:17:16.595Z,54067.53
2023-02-09T15:19:43.166Z,54034.44
2023-02-09T15:22:13.513Z,54030.31
2023-02-09T15:24:43.075Z,54044.78
2023-02-09T15:27:13.487Z,54048.91
2023-02-09T15:29:39.929Z,54030.31
2023-02-09T15:32:18.154Z,54040.66
2023-02-09T15:34:44.715Z,54042.72
2023-02-09T15:37:24.884Z,54063.38
2023-02-09T15:39:52.367Z,54038.59
2023-02-09T15:42:37.284Z,54042.72
2023-02-09T15:45:39.691Z,54048.91
2023-02-09T15:48:06.360Z,54040.66
2023-02-09T15:50:43.146Z,54042.72
2023-02-09T15:53:18.787Z,54044.78
2023-02-09T15:55:45.644Z,54057.19
2023-02-09T15:58:12.963Z,54013.75
2023-02-09T16:00:39.288Z,54009.63
2023-02-09T16:03:06.423Z,54042.72
2023-02-09T16:05:32.797Z,54030.31
2023-02-09T16:07:59.099Z,54050.97
2023-02-09T16:10:26.285Z,54061.31
2023-02-09T16:12:52.897Z,54028.25
2023-02-09T16:15:21.035Z,54038.59
2023-02-09T16:17:47.376Z,54059.25
2023-02-09T16:20:14.277Z,54030.31
2023-02-09T16:22:40.972Z,54040.66
2023-02-09T16:25:10.172Z,54019.97
2023-02-09T16:27:36.651Z,53999.28
2023-02-09T16:30:07.460Z,54055.13
2023-02-09T16:32:33.770Z,54026.16
2023-02-09T16:35:14.602Z,54013.75
2023-02-09T16:37:43.178Z,54009.63
2023-02-09T16:40:29.803Z,54013.75
2023-02-09T16:43:00.216Z,54034.44
2023-02-09T16:45:28.000Z,54032.38
2023-02-09T16:47:57.155Z,54015.84
2023-02-09T16:50:25.925Z,54046.84
2023-02-09T16:52:53.341Z,54015.84
2023-02-09T16:55:25.758Z,54005.50
2023-02-09T16:57:54.766Z,54011.69
2023-02-09T17:00:27.210Z,54069.59
2023-02-09T17:02:55.148Z,54026.16
2023-02-09T17:05:25.848Z,54009.63
2023-02-09T17:07:55.184Z,54017.91
2023-02-09T17:10:22.660Z,54026.16
2023-02-09T17:12:49.006Z,54028.25
2023-02-09T17:15:28.940Z,54005.50
2023-02-09T17:17:56.549Z,54034.44
2023-02-09T17:20:23.506Z,54032.38
2023-02-09T17:22:50.639Z,54019.97
2023-02-09T17:25:17.413Z,54024.09
2023-02-09T17:27:43.757Z,54042.72
2023-02-09T17:30:11.195Z,54015.84
2023-02-09T17:32:37.875Z,54036.50
2023-02-09T17:35:04.696Z,54042.72
2023-02-09T17:37:30.998Z,54034.44
2023-02-09T17:39:57.332Z,54022.03
2023-02-09T17:42:23.683Z,54030.31
2023-02-09T17:44:51.313Z,54017.91
2023-02-09T17:47:19.386Z,54048.91
2023-02-09T17:49:46.143Z,54055.13
2023-02-09T17:52:16.973Z,54044.78
2023-02-09T17:54:43.345Z,54046.84
2023-02-09T17:57:13.544Z,54032.38
2023-02-09T17:59:40.144Z,54040.66
2023-02-09T18:02:11.954Z,54044.78
2023-02-09T18:04:38.219Z,54059.25
2023-02-09T18:07:04.533Z,54067.53
2023-02-09T18:09:30.846Z,54071.66
2023-02-09T18:11:59.644Z,54055.13
2023-02-09T18:14:26.501Z,54057.19
2023-02-09T18:16:53.529Z,54053.06
2023-02-09T18:19:19.858Z,54048.91
2023-02-09T18:21:53.662Z,54073.72
2023-02-09T18:24:20.546Z,54044.78
2023-02-09T18:26:47.796Z,54053.06
2023-02-09T18:29:14.344Z,54063.38
2023-02-09T18:31:40.820Z,54059.25
2023-02-09T18:34:07.816Z,54042.72
2023-02-09T18:36:34.205Z,54073.72
2023-02-09T18:39:00.637Z,54048.91
2023-02-09T18:41:27.090Z,54092.34
2023-02-09T18:43:54.433Z,54059.25
2023-02-09T18:46:21.069Z,54063.38
2023-02-09T18:48:47.381Z,54069.59
2023-02-09T18:51:13.715Z,54075.78
2023-02-09T18:53:40.611Z,54071.66
2023-02-09T18:56:06.987Z,54071.66
2023-02-09T18:58:33.410Z,54075.78
2023-02-09T19:00:59.760Z,54088.19
2023-02-09T19:03:26.510Z,54092.34
2023-02-09T19:05:52.806Z,54075.78
2023-02-09T19:08:19.125Z,54092.34
2023-02-09T19:10:45.514Z,54082.00
2023-02-09T19:13:11.874Z,54098.53
2023-02-09T19:15:39.011Z,54067.53
2023-02-09T19:18:05.643Z,54075.78
2023-02-09T19:20:33.941Z,54104.75
2023-02-09T19:23:00.372Z,54090.28
2023-02-09T19:25:27.121Z,54092.34
2023-02-09T19:27:53.533Z,54108.88
2023-02-09T19:30:28.447Z,54106.81
2023-02-09T19:32:55.555Z,54123.34
2023-02-09T19:35:22.771Z,54086.13
2023-02-09T19:37:53.119Z,54125.44
2023-02-09T19:40:28.065Z,54108.88
2023-02-09T19:42:55.163Z,54141.97
2023-02-09T19:45:21.564Z,54117.16
2023-02-09T19:47:47.904Z,54110.94
2023-02-09T19:50:15.892Z,54137.84
2023-02-09T19:52:45.540Z,54121.28
2023-02-09T19:55:11.996Z,54146.09
2023-02-09T19:57:38.336Z,54125.44
2023-02-09T20:00:06.317Z,54148.16
2023-02-09T20:02:32.663Z,54135.75
2023-02-09T20:04:59.125Z,54141.97
2023-02-09T20:07:25.410Z,54141.97
2023-02-09T20:09:52.851Z,54115.09
2023-02-09T20:12:21.411Z,54113.03
2023-02-09T20:14:48.148Z,54113.03
2023-02-09T20:17:14.456Z,54113.03
2023-02-09T20:19:42.780Z,54146.09
2023-02-09T20:22:09.154Z,54092.34
2023-02-09T20:24:35.602Z,54139.91
2023-02-09T20:27:03.585Z,54133.69
2023-02-09T20:29:29.876Z,54121.28
2023-02-09T20:31:56.266Z,54139.91
2023-02-09T20:34:23.538Z,54137.84
2023-02-09T20:36:50.499Z,54125.44
2023-02-09T20:39:19.950Z,54127.50
2023-02-09T20:42:05.493Z,54144.03
2023-02-09T20:44:52.841Z,54137.84
2023-02-09T20:47:19.279Z,54146.09
2023-02-09T20:49:45.597Z,54166.78
2023-02-09T20:52:12.049Z,54148.16
2023-02-09T20:54:38.425Z,54137.84
2023-02-09T20:57:04.875Z,54154.38
2023-02-09T20:59:32.532Z,54144.03
2023-02-09T21:01:59.166Z,54152.31
2023-02-09T21:04:30.006Z,54148.16
2023-02-09T21:06:56.670Z,54160.56
2023-02-09T21:09:26.248Z,54181.25
2023-02-09T21:11:53.445Z,54154.38
2023-02-09T21:14:27.470Z,54146.09
2023-02-09T21:17:05.620Z,54156.44
2023-02-09T21:19:33.454Z,54148.16
2023-02-09T21:21:59.833Z,54123.34
2023-02-09T21:24:27.872Z,54162.66
2023-02-09T21:26:54.211Z,54199.88
2023-02-09T21:29:20.535Z,54189.53
2023-02-09T21:31:47.184Z,54175.06
2023-02-09T21:34:16.786Z,54187.47
2023-02-09T21:36:44.639Z,54144.03
2023-02-09T21:39:11.004Z,54150.25
2023-02-09T21:41:56.018Z,54154.38
2023-02-09T21:44:22.392Z,54181.25
2023-02-09T21:46:50.043Z,54191.59
2023-02-09T21:49:16.367Z,54168.84
2023-02-09T21:51:42.847Z,54187.47
2023-02-09T21:54:13.929Z,54191.59
2023-02-09T21:56:42.524Z,54191.59
2023-02-09T21:59:08.884Z,54162.66
2023-02-09T22:01:35.168Z,54168.84
2023-02-09T22:04:01.751Z,54177.13
2023-02-09T22:06:28.616Z,54204.00
2023-02-09T22:08:54.900Z,54197.78
2023-02-09T22:11:21.318Z,54160.56
2023-02-09T22:13:47.654Z,54160.56
2023-02-09T22:16:19.604Z,54214.34
2023-02-09T22:18:45.916Z,54168.84
2023-02-09T22:21:12.240Z,54172.97
2023-02-09T22:23:38.595Z,54204.00
2023-02-09T22:26:05.278Z,54185.38
2023-02-09T22:28:31.982Z,54276.38
2023-02-09T22:31:05.033Z,54183.31
2023-02-09T22:33:31.343Z,54191.59
2023-02-09T22:35:57.680Z,54222.59
2023-02-09T22:38:23.979Z,54210.19
2023-02-09T22:40:50.270Z,54195.72
2023-02-09T22:43:16.691Z,54191.59
2023-02-09T22:45:43.033Z,54199.88
2023-02-09T22:48:09.472Z,54195.72
2023-02-09T22:50:36.254Z,54204.00
2023-02-09T22:53:02.660Z,54226.75
2023-02-09T22:55:28.958Z,54199.88
2023-02-09T22:57:55.322Z,54199.88
2023-02-09T23:00:21.618Z,54199.88
2023-02-09T23:02:48.733Z,54228.81
2023-02-09T23:05:15.071Z,54220.53
2023-02-09T23:07:42.754Z,54224.69
2023-02-09T23:10:09.118Z,54175.06
2023-02-09T23:12:35.445Z,54228.81
2023-02-09T23:15:01.780Z,54220.53
2023-02-09T23:17:28.046Z,54216.41
2023-02-09T23:19:54.382Z,54228.81
2023-02-09T23:22:20.713Z,54241.22
2023-02-09T23:24:47.123Z,54218.47
2023-02-09T23:27:13.435Z,54218.47
2023-02-09T23:29:39.728Z,54222.59
2023-02-09T23:32:06.014Z,54210.19
2023-02-09T23:34:33.517Z,54212.28
2023-02-09T23:37:05.833Z,54216.41
2023-02-09T23:39:39.820Z,54214.34
2023-02-09T23:42:06.233Z,54204.00
2023-02-09T23:44:32.830Z,54224.69
2023-02-09T23:46:59.441Z,54212.28
2023-02-09T23:49:25.819Z,54197.78
2023-02-09T23:51:52.929Z,54201.94
2023-02-09T23:54:19.282Z,54185.38
2023-02-09T23:56:46.680Z,54197.78
2023-02-09T23:59:13.939Z,54212.28
